Аэропорт: Гродно. Гродно

ICAO: UMMG

METAR:
Информация по данной станции не доступна
METAR:
2021-07-28 11:01:00
TAF UMMG 281101Z 2812/2821 28003MPS 9999 BKN020 TEMPO 2812/2818 27004G09MPS TEMPO 2818/2821 VRB02MPS 3000 -SHRA BKN013CB